Terminal Aerodrome Forecast
Issued by NWS

Home | Current Version | Previous Version | Text Only | Print | Product List | Glossary On
Versions: 1 2 3 4 5 6 7 8 9 10 11 12 13 14 15 16 17 18 19 20
000
FTUS42 KMLB 060531
TAFFPR
TAF
KFPR 060531Z 0606/0706 22003KT P6SM SCT120 OVC250
     FM061300 15005KT P6SM SCT025 SCT250
     FM061600 13009KT P6SM VCTS SCT035CB BKN250
     FM062300 12005KT P6SM SCT030 BKN250=

USA.gov is the U.S. government's official web portal to all federal, state and local government web resources and services.